Time;durP1;ratioP1;P1;durP2;ratioP2;P2;SDS_P1;SDS_P2;PMS_P1;PMS_P2;Temp;Humidity;BMP_temperature;BMP_pressure;BME280_temperature;BME280_humidity;BME280_pressure;Samples;Min_cycle;Max_cycle;Signal;HPM_P1;HPM_P2
2022/06/20 00:00:41;;;;;;;6.63;2.80;;;22.80;90.20;;;;;;4994962;28;20058;-51
2022/06/20 00:03:12;;;;;;;7.97;2.80;;;22.70;89.80;;;;;;4995776;28;20030;-45
2022/06/20 00:05:38;;;;;;;10.10;3.55;;;22.70;90.00;;;;;;4994898;28;20513;-44
2022/06/20 00:08:04;;;;;;;8.55;2.67;;;22.70;89.60;;;;;;4993804;28;20027;-52
2022/06/20 00:10:31;;;;;;;10.90;3.72;;;22.70;89.90;;;;;;4994157;28;20069;-51
2022/06/20 00:12:57;;;;;;;4.80;2.17;;;22.70;89.80;;;;;;5016482;23;20148;-44
2022/06/20 00:15:29;;;;;;;7.45;2.70;;;22.70;90.00;;;;;;5028536;28;20030;-43
2022/06/20 00:17:55;;;;;;;6.95;2.92;;;22.70;89.70;;;;;;5012865;28;20026;-43
2022/06/20 00:20:21;;;;;;;5.72;2.30;;;22.60;89.40;;;;;;5013333;28;20022;-45
2022/06/20 00:22:47;;;;;;;7.40;2.67;;;22.60;89.70;;;;;;5013263;28;20025;-45
2022/06/20 00:25:13;;;;;;;8.77;2.63;;;22.60;89.40;;;;;;5012650;28;20401;-44
2022/06/20 00:27:39;;;;;;;6.07;2.53;;;22.50;89.40;;;;;;5012960;28;20374;-47
2022/06/20 00:30:06;;;;;;;7.88;2.22;;;22.40;90.00;;;;;;5013164;28;20036;-43
2022/06/20 00:32:31;;;;;;;12.85;3.45;;;22.30;90.10;;;;;;5013188;28;20034;-44
2022/06/20 00:34:57;;;;;;;13.02;2.92;;;22.20;90.20;;;;;;5013432;28;20489;-44
2022/06/20 00:37:23;;;;;;;7.30;2.67;;;22.20;90.30;;;;;;5012735;28;20026;-43
2022/06/20 00:39:50;;;;;;;10.60;3.03;;;22.10;90.30;;;;;;5012808;28;20032;-43
2022/06/20 00:42:15;;;;;;;4.70;2.30;;;22.10;90.10;;;;;;5013001;28;20393;-44
2022/06/20 00:44:45;;;;;;;7.30;3.08;;;22.10;90.10;;;;;;5012917;28;20097;-46
2022/06/20 00:47:18;;;;;;;8.25;2.75;;;22.00;90.30;;;;;;5011713;28;20100;-48
2022/06/20 00:49:54;;;;;;;14.65;2.55;;;21.90;90.30;;;;;;5012901;28;20033;-45
2022/06/20 00:52:40;;;;;;;7.20;2.47;;;21.70;90.40;;;;;;5012698;28;20022;-45
2022/06/20 00:55:18;;;;;;;9.98;2.80;;;21.90;90.20;;;;;;5011491;28;20053;-45
2022/06/20 00:57:54;;;;;;;10.10;2.45;;;21.80;90.30;;;;;;5012519;28;20026;-44
2022/06/20 01:00:28;;;;;;;12.52;3.55;;;21.70;90.50;;;;;;5011423;28;20080;-46
2022/06/20 01:03:05;;;;;;;8.27;2.30;;;21.70;90.60;;;;;;5012511;28;20086;-45
2022/06/20 01:05:51;;;;;;;5.63;2.20;;;21.70;90.50;;;;;;5012561;28;20018;-46
2022/06/20 01:08:34;;;;;;;9.57;2.25;;;21.60;90.60;;;;;;5012153;28;20133;-46
2022/06/20 01:11:06;;;;;;;11.88;2.40;;;21.50;90.80;;;;;;5012551;28;20076;-48
2022/06/20 01:13:32;;;;;;;6.55;2.60;;;21.50;91.00;;;;;;5010901;28;20034;-43
2022/06/20 01:16:06;;;;;;;7.18;2.45;;;21.50;91.10;;;;;;5012442;28;20056;-44
2022/06/20 01:18:35;;;;;;;7.97;2.25;;;21.50;91.20;;;;;;5012169;28;20017;-47
2022/06/20 01:21:10;;;;;;;10.13;2.97;;;21.50;91.30;;;;;;5011198;28;20397;-45
2022/06/20 01:23:50;;;;;;;7.00;2.58;;;21.50;91.50;;;;;;5012013;28;20021;-45
2022/06/20 01:26:29;;;;;;;9.25;2.58;;;21.50;91.30;;;;;;5012244;28;20033;-45
2022/06/20 01:28:59;;;;;;;7.03;2.05;;;21.60;91.00;;;;;;5012021;28;20022;-44
2022/06/20 01:31:26;;;;;;;2.83;1.83;;;21.70;91.10;;;;;;5012103;28;20026;-45
2022/06/20 01:33:52;;;;;;;27.95;3.97;;;21.70;91.10;;;;;;5012083;28;20025;-46
2022/06/20 01:39:06;;;;;;;12.70;3.88;;;21.70;91.40;;;;;;5012108;28;20083;-44
2022/06/20 01:44:19;;;;;;;6.10;2.42;;;21.80;91.40;;;;;;5012217;28;20115;-46
2022/06/20 01:46:44;;;;;;;5.90;2.63;;;21.80;91.30;;;;;;5011902;28;20026;-46
2022/06/20 01:49:14;;;;;;;11.27;3.30;;;21.80;91.50;;;;;;5012036;28;20030;-44
2022/06/20 01:51:46;;;;;;;12.15;2.97;;;21.90;92.00;;;;;;5011956;28;20034;-45
2022/06/20 01:54:14;;;;;;;10.43;2.92;;;21.90;92.50;;;;;;5011733;28;20026;-43
2022/06/20 01:56:42;;;;;;;12.57;3.10;;;21.90;93.10;;;;;;5011700;28;20456;-44
2022/06/20 01:59:13;;;;;;;7.43;3.05;;;21.90;93.10;;;;;;5011330;28;20520;-52
2022/06/20 02:01:39;;;;;;;8.57;2.50;;;21.90;92.90;;;;;;5011806;28;20029;-44
2022/06/20 02:04:10;;;;;;;6.88;2.40;;;21.90;92.70;;;;;;5011715;28;20536;-45
2022/06/20 02:06:37;;;;;;;13.13;3.42;;;21.80;92.50;;;;;;5011701;28;20029;-43
2022/06/20 02:09:04;;;;;;;11.98;2.53;;;21.70;92.80;;;;;;5011315;28;20041;-44
2022/06/20 02:11:34;;;;;;;20.20;4.00;;;21.70;92.90;;;;;;5011646;28;20092;-44
2022/06/20 02:14:04;;;;;;;10.52;2.67;;;21.60;93.00;;;;;;5011455;28;20038;-44
2022/06/20 02:16:34;;;;;;;17.08;2.72;;;21.30;93.90;;;;;;5011611;28;20026;-44
2022/06/20 02:19:04;;;;;;;13.35;2.92;;;21.20;94.00;;;;;;5011483;28;20029;-43
2022/06/20 02:21:32;;;;;;;7.53;3.38;;;21.00;94.40;;;;;;5011542;28;20025;-45
2022/06/20 02:24:12;;;;;;;9.50;2.78;;;20.90;94.80;;;;;;5011080;28;20030;-46
2022/06/20 02:26:40;;;;;;;16.70;2.80;;;20.50;95.70;;;;;;5011552;28;20445;-45
2022/06/20 02:29:20;;;;;;;7.20;2.60;;;20.30;96.20;;;;;;5011357;28;20025;-45
2022/06/20 02:31:46;;;;;;;9.00;2.22;;;20.20;96.60;;;;;;5011581;28;20018;-46
2022/06/20 02:34:12;;;;;;;16.48;3.40;;;20.20;96.90;;;;;;5011449;28;20402;-45
2022/06/20 02:36:37;;;;;;;9.70;3.22;;;20.10;96.90;;;;;;5011339;28;20037;-44
2022/06/20 02:39:03;;;;;;;10.50;2.88;;;20.10;97.00;;;;;;5011203;28;20033;-43
2022/06/20 02:41:30;;;;;;;6.97;2.45;;;20.20;96.80;;;;;;5011404;28;20033;-42
2022/06/20 02:44:07;;;;;;;10.77;2.60;;;20.30;96.70;;;;;;5011354;28;20036;-43
2022/06/20 02:46:33;;;;;;;8.68;2.67;;;20.30;96.40;;;;;;5011270;28;20022;-46
2022/06/20 02:49:02;;;;;;;8.00;2.65;;;20.40;96.30;;;;;;5011217;28;20026;-44
2022/06/20 02:51:35;;;;;;;10.73;2.88;;;20.40;96.20;;;;;;5011330;28;20420;-45
2022/06/20 02:54:04;;;;;;;13.43;3.60;;;20.40;96.20;;;;;;5011765;28;20372;-44
2022/06/20 02:56:36;;;;;;;15.18;3.58;;;20.30;96.30;;;;;;5011288;28;20109;-44
2022/06/20 02:59:06;;;;;;;28.80;4.43;;;20.30;96.20;;;;;;5011045;28;20022;-43
2022/06/20 03:01:45;;;;;;;17.30;4.13;;;20.30;96.20;;;;;;5011232;28;20068;-44
2022/06/20 03:04:11;;;;;;;9.43;3.75;;;20.30;96.20;;;;;;5011537;28;20026;-46
2022/06/20 03:06:42;;;;;;;10.05;3.50;;;20.30;96.10;;;;;;5011160;28;20104;-44
2022/06/20 03:09:14;;;;;;;4.78;2.50;;;20.30;95.90;;;;;;5010953;28;20142;-46
2022/06/20 03:11:40;;;;;;;7.50;2.50;;;20.30;95.60;;;;;;5013539;28;20018;-48
2022/06/20 03:14:10;;;;;;;11.82;2.63;;;20.30;95.40;;;;;;5014797;28;20021;-49
2022/06/20 03:16:39;;;;;;;8.63;4.53;;;20.40;95.10;;;;;;5014690;28;20018;-46
2022/06/20 03:19:06;;;;;;;10.80;2.47;;;20.40;95.10;;;;;;5014312;28;20014;-47
2022/06/20 03:21:38;;;;;;;10.77;2.28;;;20.40;94.90;;;;;;5014385;28;20026;-44
2022/06/20 03:24:04;;;;;;;8.50;2.97;;;20.40;94.90;;;;;;5014255;28;20014;-43
2022/06/20 03:26:30;;;;;;;4.25;2.33;;;20.40;95.00;;;;;;5014417;28;20014;-47
2022/06/20 03:28:56;;;;;;;9.55;3.17;;;20.40;94.80;;;;;;5014124;28;20033;-43
2022/06/20 03:31:22;;;;;;;5.35;2.30;;;20.40;95.00;;;;;;5014278;28;20516;-46
2022/06/20 03:33:47;;;;;;;9.20;2.30;;;20.40;95.00;;;;;;5014353;28;20033;-45
2022/06/20 03:36:20;;;;;;;9.57;3.08;;;20.40;94.90;;;;;;5014156;28;20037;-45
2022/06/20 03:38:47;;;;;;;6.75;2.60;;;20.50;94.90;;;;;;5016392;28;20443;-43
2022/06/20 03:41:15;;;;;;;7.43;3.15;;;20.50;94.50;;;;;;5015274;28;20034;-44
2022/06/20 03:43:50;;;;;;;10.73;2.60;;;20.50;94.80;;;;;;5014111;28;20026;-47
2022/06/20 03:46:25;;;;;;;13.38;2.70;;;20.50;94.90;;;;;;5014073;28;20022;-43
2022/06/20 03:49:06;;;;;;;9.52;2.53;;;20.40;94.90;;;;;;5012709;28;20038;-49
2022/06/20 03:51:39;;;;;;;5.97;2.65;;;20.40;95.20;;;;;;5014145;28;20029;-44
2022/06/20 03:54:11;;;;;;;9.07;2.50;;;20.30;95.20;;;;;;5013947;28;20033;-45
2022/06/20 03:57:06;;;;;;;8.05;2.90;;;20.30;95.10;;;;;;5013843;28;20026;-47
2022/06/20 03:59:48;;;;;;;9.25;2.55;;;20.30;95.20;;;;;;5014107;28;20022;-44
2022/06/20 04:02:19;;;;;;;7.63;2.13;;;20.30;95.20;;;;;;5013783;28;20034;-45
2022/06/20 04:05:05;;;;;;;5.53;2.45;;;20.30;95.30;;;;;;5013619;28;20036;-45
2022/06/20 04:07:38;;;;;;;8.90;2.17;;;20.30;95.10;;;;;;5013395;28;20030;-44
2022/06/20 04:13:23;;;;;;;8.52;2.63;;;20.30;94.80;;;;;;5013613;28;20049;-44
2022/06/20 04:15:53;;;;;;;10.68;2.17;;;20.30;94.90;;;;;;5013590;28;20034;-43
2022/06/20 04:18:29;;;;;;;6.22;2.40;;;20.30;94.70;;;;;;5013073;28;20040;-46
2022/06/20 04:21:23;;;;;;;5.00;2.20;;;20.30;94.60;;;;;;5013237;28;20033;-45
2022/06/20 04:24:01;;;;;;;6.85;2.28;;;20.30;94.60;;;;;;5013258;28;20049;-44
2022/06/20 04:26:38;;;;;;;11.32;3.40;;;20.30;94.80;;;;;;5013291;28;20045;-45
2022/06/20 04:29:16;;;;;;;8.95;3.15;;;20.30;94.60;;;;;;5013338;28;20045;-43
2022/06/20 04:31:51;;;;;;;9.55;2.15;;;20.30;94.40;;;;;;5013503;28;20105;-46
2022/06/20 04:34:40;;;;;;;3.45;2.13;;;20.30;94.50;;;;;;5010956;28;20030;-47
2022/06/20 04:37:18;;;;;;;3.75;2.03;;;20.30;94.60;;;;;;5012790;28;20039;-44
2022/06/20 04:40:19;;;;;;;5.68;2.28;;;20.30;94.60;;;;;;5012644;28;20022;-48
2022/06/20 04:42:52;;;;;;;6.45;2.20;;;20.30;94.60;;;;;;4993603;28;20042;-46
2022/06/20 04:45:21;;;;;;;8.77;2.40;;;20.30;94.70;;;;;;5013062;28;20037;-48
2022/06/20 04:47:53;;;;;;;4.30;1.88;;;20.40;94.60;;;;;;5011948;28;20032;-48
2022/06/20 04:50:26;;;;;;;10.80;3.03;;;20.40;94.50;;;;;;5012806;28;20412;-46
2022/06/20 04:52:55;;;;;;;10.27;2.60;;;20.40;94.60;;;;;;5012853;28;20406;-44
2022/06/20 04:55:24;;;;;;;11.82;2.47;;;20.50;94.70;;;;;;5012467;28;20080;-45
2022/06/20 04:57:52;;;;;;;4.88;1.77;;;20.60;94.50;;;;;;5011674;28;20033;-46
2022/06/20 05:00:34;;;;;;;8.23;2.40;;;20.60;94.20;;;;;;5012323;28;20081;-45
2022/06/20 05:02:59;;;;;;;5.90;2.38;;;20.60;94.50;;;;;;5012193;28;20034;-43
2022/06/20 05:05:30;;;;;;;6.90;2.00;;;20.60;94.40;;;;;;5012550;28;20141;-44
2022/06/20 05:07:56;;;;;;;9.98;2.10;;;20.60;94.60;;;;;;5011002;28;20416;-47
2022/06/20 05:10:29;;;;;;;6.05;1.95;;;20.60;94.50;;;;;;5011965;28;20026;-44
2022/06/20 05:13:12;;;;;;;11.52;2.40;;;20.60;94.70;;;;;;5012355;28;20025;-45
2022/06/20 05:15:46;;;;;;;3.05;1.90;;;20.50;94.60;;;;;;5012252;28;20061;-47
2022/06/20 05:18:30;;;;;;;5.83;2.07;;;20.40;94.70;;;;;;5011523;28;20026;-45
2022/06/20 05:21:01;;;;;;;6.95;1.95;;;20.40;94.80;;;;;;5011805;28;20032;-44
2022/06/20 05:23:29;;;;;;;5.60;2.38;;;20.40;94.60;;;;;;5012049;28;20033;-47
2022/06/20 05:25:57;;;;;;;8.07;2.17;;;20.20;94.90;;;;;;5012269;28;20030;-48
2022/06/20 05:28:24;;;;;;;8.50;2.20;;;20.20;95.10;;;;;;5011787;28;20022;-46
2022/06/20 05:30:50;;;;;;;12.02;2.90;;;20.20;95.00;;;;;;5012059;28;20037;-47
2022/06/20 05:33:35;;;;;;;9.60;2.92;;;20.30;95.20;;;;;;5011493;28;20037;-49
2022/06/20 05:36:07;;;;;;;11.57;3.10;;;20.40;95.40;;;;;;5012101;28;20026;-48
2022/06/20 05:38:41;;;;;;;9.50;2.17;;;20.40;95.30;;;;;;5011959;28;20026;-47
2022/06/20 05:41:12;;;;;;;17.25;3.53;;;20.50;95.30;;;;;;5012010;28;20034;-45
2022/06/20 05:43:38;;;;;;;5.63;2.05;;;20.60;95.20;;;;;;5011701;28;20490;-44
2022/06/20 05:46:07;;;;;;;6.60;1.80;;;20.60;95.30;;;;;;5011522;28;20030;-47
2022/06/20 05:48:48;;;;;;;5.03;2.45;;;20.70;95.20;;;;;;5011510;28;20072;-50
2022/06/20 05:51:15;;;;;;;7.35;1.90;;;20.60;95.50;;;;;;5011507;28;20030;-45
2022/06/20 05:54:01;;;;;;;6.20;2.13;;;20.60;95.60;;;;;;5011389;28;20025;-48
2022/06/20 05:56:39;;;;;;;7.00;2.15;;;20.60;95.80;;;;;;5011232;28;20026;-44
2022/06/20 05:59:07;;;;;;;7.20;2.15;;;20.60;95.70;;;;;;5010817;28;20029;-47
2022/06/20 06:01:35;;;;;;;6.65;2.03;;;20.60;96.00;;;;;;5011724;28;20021;-45
2022/06/20 06:04:16;;;;;;;4.15;1.77;;;20.60;96.00;;;;;;5011459;28;20117;-48
2022/06/20 06:06:55;;;;;;;4.28;1.75;;;20.70;96.00;;;;;;5009690;28;20022;-43
2022/06/20 06:09:27;;;;;;;7.47;2.30;;;20.70;95.90;;;;;;5011570;28;20045;-45
2022/06/20 06:12:00;;;;;;;6.38;2.45;;;20.80;96.40;;;;;;5011470;28;20413;-45
2022/06/20 06:14:41;;;;;;;7.10;2.03;;;20.80;95.90;;;;;;5032412;22;20046;-48
2022/06/20 06:17:20;;;;;;;9.98;2.85;;;20.80;96.10;;;;;;5010946;28;20022;-46
2022/06/20 06:19:54;;;;;;;6.13;2.35;;;20.80;96.60;;;;;;5005835;28;20480;-47
2022/06/20 06:22:37;;;;;;;3.25;1.88;;;20.80;96.20;;;;;;5011626;28;20018;-46
2022/06/20 06:25:21;;;;;;;6.20;1.60;;;20.70;95.80;;;;;;4998134;28;20118;-46
2022/06/20 06:27:49;;;;;;;5.07;1.90;;;20.70;96.20;;;;;;4991463;28;20022;-45
2022/06/20 06:30:21;;;;;;;10.45;2.83;;;20.60;97.20;;;;;;4990852;28;20029;-45
2022/06/20 06:32:59;;;;;;;9.85;3.08;;;20.50;98.30;;;;;;4992622;28;20486;-47
2022/06/20 06:35:34;;;;;;;4.45;2.33;;;20.30;98.50;;;;;;4991810;28;20519;-48
2022/06/20 06:38:31;;;;;;;8.23;2.83;;;20.30;98.70;;;;;;4976482;28;20030;-48
2022/06/20 06:40:58;;;;;;;5.63;2.92;;;20.00;99.90;;;;;;4984580;28;20036;-44
2022/06/20 06:43:37;;;;;;;13.40;3.33;;;19.60;99.90;;;;;;4991676;28;20022;-42
2022/06/20 06:46:06;;;;;;;24.58;3.38;;;19.50;99.90;;;;;;4993327;28;20113;-47
2022/06/20 06:48:39;;;;;;;8.57;3.28;;;19.20;99.90;;;;;;4994793;28;20092;-50
2022/06/20 06:51:11;;;;;;;6.70;3.25;;;19.10;99.90;;;;;;4994789;28;20113;-45
2022/06/20 06:53:45;;;;;;;6.35;3.00;;;19.10;99.90;;;;;;4994860;28;20042;-48
2022/06/20 06:56:24;;;;;;;8.45;3.72;;;19.10;99.90;;;;;;4995677;28;20033;-47
2022/06/20 06:58:55;;;;;;;10.02;3.67;;;19.10;99.90;;;;;;4994050;28;20026;-46
2022/06/20 07:01:26;;;;;;;6.45;3.08;;;19.10;99.90;;;;;;4993875;28;20058;-45
2022/06/20 07:03:58;;;;;;;7.93;3.10;;;19.20;99.90;;;;;;4995141;28;20022;-47
2022/06/20 07:06:43;;;;;;;7.95;3.20;;;19.30;99.90;;;;;;4994982;28;20022;-48
2022/06/20 07:09:14;;;;;;;6.15;2.65;;;19.50;99.90;;;;;;4993661;28;20433;-49
2022/06/20 07:11:49;;;;;;;7.68;3.67;;;19.50;99.90;;;;;;4994800;28;20030;-48
2022/06/20 07:14:21;;;;;;;8.75;3.90;;;19.50;99.90;;;;;;4994160;28;20037;-47
2022/06/20 07:17:00;;;;;;;13.10;3.00;;;19.50;99.90;;;;;;4994126;28;20034;-44
2022/06/20 07:19:26;;;;;;;10.00;3.13;;;19.50;99.90;;;;;;4993842;28;20026;-45
2022/06/20 07:21:53;;;;;;;10.13;3.42;;;19.50;99.90;;;;;;4993439;28;20071;-47
2022/06/20 07:24:23;;;;;;;7.93;2.72;;;19.50;99.90;;;;;;4993170;28;20497;-45
2022/06/20 07:26:48;;;;;;;6.85;3.45;;;19.70;99.90;;;;;;4994154;28;20038;-48
2022/06/20 07:29:19;;;;;;;8.02;3.28;;;19.80;99.90;;;;;;4994675;28;20031;-45
2022/06/20 07:32:11;;;;;;;9.88;3.10;;;19.90;99.90;;;;;;4993383;28;20109;-45
2022/06/20 07:34:42;;;;;;;10.13;2.90;;;20.00;99.90;;;;;;4967737;28;20034;-49
2022/06/20 07:37:13;;;;;;;10.38;3.05;;;20.10;99.90;;;;;;4994290;28;20034;-49
2022/06/20 07:39:46;;;;;;;10.23;3.22;;;20.00;99.90;;;;;;4994714;28;20033;-47
2022/06/20 07:42:24;;;;;;;8.18;2.78;;;19.90;99.90;;;;;;4994785;28;20403;-46
2022/06/20 07:44:59;;;;;;;10.07;3.20;;;19.80;99.90;;;;;;4994597;28;20135;-46
2022/06/20 07:47:40;;;;;;;10.17;3.30;;;19.80;99.90;;;;;;4993668;28;20499;-50
2022/06/20 07:50:17;;;;;;;10.18;3.50;;;19.90;99.90;;;;;;4992951;28;20092;-49
2022/06/20 07:52:54;;;;;;;8.55;3.33;;;20.00;99.90;;;;;;4994646;28;20034;-50
2022/06/20 07:55:25;;;;;;;13.23;3.50;;;20.10;99.90;;;;;;4993715;28;20015;-50
2022/06/20 07:58:22;;;;;;;7.35;3.00;;;20.20;99.90;;;;;;4993991;28;20030;-46
2022/06/20 08:00:51;;;;;;;8.50;3.58;;;20.20;99.90;;;;;;4981374;28;20129;-51
2022/06/20 08:03:43;;;;;;;8.90;3.42;;;20.10;99.90;;;;;;4992979;28;20018;-45
2022/06/20 08:06:32;;;;;;;10.05;3.78;;;20.10;99.90;;;;;;4993257;28;20022;-46
2022/06/20 08:09:07;;;;;;;6.28;2.78;;;20.10;99.90;;;;;;4993302;28;20494;-45
2022/06/20 08:11:45;;;;;;;7.40;3.45;;;20.10;99.90;;;;;;4989841;28;20030;-44
2022/06/20 08:14:49;;;;;;;9.80;4.53;;;20.20;99.90;;;;;;4974715;28;20418;-46
2022/06/20 08:17:15;;;;;;;11.98;4.15;;;20.20;99.90;;;;;;4986563;28;20046;-45
2022/06/20 08:19:43;;;;;;;8.18;3.85;;;20.20;99.90;;;;;;4999007;28;20064;-43
2022/06/20 08:22:37;;;;;;;6.30;3.47;;;20.30;99.90;;;;;;5000564;28;20030;-47
2022/06/20 08:25:49;;;;;;;11.98;2.83;;;20.50;99.90;;;;;;4983548;28;20027;-49
2022/06/20 08:28:19;;;;;;;7.50;3.25;;;20.60;99.90;;;;;;4930895;29;20031;-46
2022/06/20 08:30:53;;;;;;;7.95;3.58;;;20.70;99.90;;;;;;4933493;29;20031;-49
2022/06/20 08:33:41;;;;;;;9.25;3.83;;;20.80;99.90;;;;;;4966280;28;20034;-47
2022/06/20 08:36:27;;;;;;;8.95;4.25;;;20.90;99.90;;;;;;4993599;28;20029;-47
2022/06/20 08:39:03;;;;;;;7.85;3.00;;;21.10;99.90;;;;;;4993344;28;20065;-45
2022/06/20 08:42:00;;;;;;;7.10;3.20;;;21.20;99.90;;;;;;4993363;28;20514;-46
2022/06/20 08:44:37;;;;;;;4.90;2.65;;;21.30;99.90;;;;;;4993380;28;20548;-45
2022/06/20 08:47:30;;;;;;;7.53;2.85;;;21.30;99.90;;;;;;4991834;28;20426;-52
2022/06/20 08:50:30;;;;;;;3.67;2.60;;;21.20;99.90;;;;;;4982873;28;20069;-47
2022/06/20 08:53:38;;;;;;;4.15;1.95;;;21.00;99.90;;;;;;4993644;28;20093;-46
2022/06/20 08:56:45;;;;;;;1.55;1.45;;;20.90;99.90;;;;;;4992730;28;20037;-49
2022/06/20 08:59:29;;;;;;;2.55;1.42;;;20.70;99.90;;;;;;4989242;28;20030;-49
2022/06/20 09:02:14;;;;;;;2.15;1.10;;;20.30;99.90;;;;;;4993161;28;20031;-49
2022/06/20 09:04:56;;;;;;;3.28;1.10;;;20.00;99.90;;;;;;4993271;28;20046;-47
2022/06/20 09:07:42;;;;;;;6.28;1.77;;;19.80;99.90;;;;;;4991808;28;20022;-46
2022/06/20 09:10:17;;;;;;;1.42;0.88;;;19.60;99.90;;;;;;4992502;28;20039;-47
2022/06/20 09:12:56;;;;;;;4.35;0.90;;;19.60;99.90;;;;;;4992773;28;20113;-50
2022/06/20 09:15:52;;;;;;;0.65;0.65;;;19.70;99.90;;;;;;4992789;28;20030;-47
2022/06/20 09:18:38;;;;;;;0.50;0.50;;;19.60;99.90;;;;;;4992664;28;20505;-47
2022/06/20 09:21:13;;;;;;;1.45;1.13;;;19.60;99.90;;;;;;4992821;28;20069;-50
2022/06/20 09:24:13;;;;;;;2.70;0.73;;;19.60;99.90;;;;;;4993000;28;20021;-48
2022/06/20 09:26:59;;;;;;;2.65;1.20;;;19.50;99.90;;;;;;4981110;28;20045;-50
2022/06/20 09:29:51;;;;;;;3.42;1.10;;;19.30;99.90;;;;;;4992272;28;20022;-54
2022/06/20 09:32:37;;;;;;;1.00;0.90;;;19.50;99.90;;;;;;4991377;28;20072;-46
2022/06/20 09:35:22;;;;;;;2.60;0.80;;;19.70;99.90;;;;;;4992345;28;20037;-49
2022/06/20 09:38:15;;;;;;;0.77;0.60;;;19.90;99.90;;;;;;4992468;28;20069;-49
2022/06/20 09:40:53;;;;;;;0.80;0.80;;;20.20;99.90;;;;;;4992214;28;20516;-48
2022/06/20 09:43:37;;;;;;;0.82;0.82;;;20.30;99.90;;;;;;4991578;28;20026;-49
2022/06/20 09:46:30;;;;;;;0.68;0.63;;;20.30;99.90;;;;;;4990582;28;20027;-50
2022/06/20 09:49:13;;;;;;;2.70;0.60;;;20.40;99.90;;;;;;4991649;28;20520;-51
2022/06/20 09:51:47;;;;;;;0.75;0.75;;;20.50;99.90;;;;;;4992130;28;20022;-51
2022/06/20 09:54:41;;;;;;;0.73;0.73;;;20.40;99.90;;;;;;4991924;28;20068;-50
2022/06/20 09:57:13;;;;;;;0.60;0.60;;;20.20;99.90;;;;;;4991641;28;20088;-52
2022/06/20 10:00:06;;;;;;;2.35;0.82;;;19.90;99.90;;;;;;4992245;28;20027;-52
2022/06/20 10:02:47;;;;;;;0.90;0.80;;;19.70;99.90;;;;;;4992202;28;20030;-48
2022/06/20 10:05:35;;;;;;;0.80;0.80;;;19.70;99.90;;;;;;4992084;28;20082;-52
2022/06/20 10:08:29;;;;;;;1.73;0.70;;;19.60;99.90;;;;;;4991879;28;20019;-52
2022/06/20 10:11:25;;;;;;;0.85;0.80;;;19.50;99.90;;;;;;4988720;28;20117;-47
2022/06/20 10:14:12;;;;;;;0.70;0.70;;;19.50;99.90;;;;;;4992049;28;20025;-47
2022/06/20 10:16:47;;;;;;;0.70;0.70;;;19.50;99.90;;;;;;4992423;28;20521;-49
2022/06/20 10:19:28;;;;;;;0.90;0.90;;;19.50;99.90;;;;;;4994121;28;20031;-48
2022/06/20 10:22:06;;;;;;;1.33;1.00;;;19.50;99.90;;;;;;4996170;28;20066;-48
2022/06/20 10:25:06;;;;;;;1.25;1.10;;;19.20;99.90;;;;;;4995079;28;20076;-51
2022/06/20 10:27:58;;;;;;;2.47;1.20;;;19.10;99.90;;;;;;4995317;28;20030;-45
2022/06/20 10:30:35;;;;;;;1.40;1.30;;;19.10;99.90;;;;;;4995949;28;20188;-53
2022/06/20 10:33:29;;;;;;;1.48;1.33;;;19.20;99.90;;;;;;4995711;28;20045;-49
2022/06/20 10:36:13;;;;;;;1.55;1.45;;;19.00;99.90;;;;;;4996168;28;20042;-52
2022/06/20 10:38:59;;;;;;;1.63;1.52;;;19.10;99.90;;;;;;4994151;28;20035;-52
2022/06/20 10:41:36;;;;;;;1.52;1.42;;;19.20;99.90;;;;;;4995634;28;20030;-47
2022/06/20 10:44:43;;;;;;;2.35;1.52;;;18.80;99.90;;;;;;4995708;28;20023;-47
2022/06/20 10:47:40;;;;;;;1.90;1.80;;;18.80;99.90;;;;;;4979620;28;20109;-46
2022/06/20 10:50:10;;;;;;;2.35;1.90;;;19.00;99.90;;;;;;4976765;28;20034;-48
2022/06/20 10:52:58;;;;;;;2.20;2.03;;;19.00;99.90;;;;;;4995621;28;20030;-49
2022/06/20 10:55:44;;;;;;;7.00;1.70;;;19.10;99.90;;;;;;4995587;28;20498;-51
2022/06/20 10:58:41;;;;;;;15.90;12.18;;;19.20;99.90;;;;;;4995083;28;20089;-46
2022/06/20 11:01:28;;;;;;;4.78;4.32;;;19.20;99.90;;;;;;4995248;28;20131;-49
2022/06/20 11:04:28;;;;;;;1.48;1.38;;;19.30;99.90;;;;;;4986409;28;20437;-48
2022/06/20 11:07:23;;;;;;;1.77;1.40;;;19.40;99.90;;;;;;5009072;28;20104;-51
2022/06/20 11:10:05;;;;;;;1.00;1.00;;;19.50;99.90;;;;;;4985980;28;20490;-49
2022/06/20 11:12:51;;;;;;;6.95;0.85;;;19.40;99.90;;;;;;4995085;28;20035;-50
2022/06/20 11:15:26;;;;;;;2.58;1.00;;;19.10;99.90;;;;;;4992535;28;20023;-48
2022/06/20 11:18:33;;;;;;;1.45;1.00;;;19.00;99.90;;;;;;4994836;28;20111;-49
2022/06/20 11:21:21;;;;;;;1.23;1.00;;;19.00;99.90;;;;;;4994451;28;20129;-47
2022/06/20 11:24:07;;;;;;;3.88;1.50;;;18.80;99.90;;;;;;4994601;28;20027;-45
2022/06/20 11:26:51;;;;;;;1.27;1.02;;;18.70;99.90;;;;;;4994609;28;20022;-50
2022/06/20 11:29:30;;;;;;;1.52;1.20;;;18.60;99.90;;;;;;4995234;28;20038;-52
2022/06/20 11:32:21;;;;;;;1.40;1.30;;;18.50;99.90;;;;;;4992819;28;20445;-51
2022/06/20 11:35:08;;;;;;;3.30;1.13;;;18.50;99.90;;;;;;4994520;28;20022;-46
2022/06/20 11:37:42;;;;;;;1.42;1.10;;;18.50;99.90;;;;;;4994737;28;20105;-52
2022/06/20 11:40:29;;;;;;;2.03;0.93;;;18.50;99.90;;;;;;4994176;28;20037;-49
2022/06/20 11:43:16;;;;;;;4.43;0.90;;;18.60;99.90;;;;;;4994421;28;20391;-53
2022/06/20 11:46:03;;;;;;;1.42;0.85;;;18.60;99.90;;;;;;4994739;28;20525;-47
2022/06/20 11:48:49;;;;;;;2.20;1.00;;;18.60;99.90;;;;;;4995198;28;20062;-46
2022/06/20 11:51:30;;;;;;;2.03;0.93;;;18.50;99.90;;;;;;4994785;28;20101;-49
2022/06/20 11:54:05;;;;;;;2.58;0.88;;;18.50;99.90;;;;;;4992934;28;20066;-51
2022/06/20 11:56:33;;;;;;;;;;;18.40;99.90;;;;;;4995242;28;20030;-50
2022/06/20 11:59:13;;;;;;;3.13;0.90;;;18.30;99.90;;;;;;4994392;28;19940;-46
2022/06/20 12:01:46;;;;;;;0.60;0.60;;;18.30;99.90;;;;;;4994611;28;20108;-50
2022/06/20 12:04:27;;;;;;;1.67;1.27;;;18.60;99.90;;;;;;4994442;28;20053;-51
2022/06/20 12:07:00;;;;;;;1.38;1.00;;;18.70;99.90;;;;;;4994394;28;20026;-49
2022/06/20 12:09:53;;;;;;;0.68;0.68;;;18.90;99.90;;;;;;4994142;28;20053;-49
2022/06/20 12:12:30;;;;;;;0.63;0.63;;;18.90;99.90;;;;;;4975100;28;20034;-50
2022/06/20 12:15:16;;;;;;;2.95;0.63;;;18.90;99.90;;;;;;4974538;28;20096;-48
2022/06/20 12:18:00;;;;;;;1.38;0.85;;;18.70;99.90;;;;;;4974026;28;20030;-49
2022/06/20 12:23:43;;;;;;;4.78;1.10;;;18.50;99.90;;;;;;5033303;28;20117;-50
2022/06/20 12:26:32;;;;;;;3.05;2.08;;;18.50;99.90;;;;;;5031985;28;20108;-44
2022/06/20 12:29:00;;;;;;;0.60;0.60;;;18.60;99.90;;;;;;5032367;28;20022;-45
2022/06/20 12:31:34;;;;;;;0.57;0.57;;;18.70;99.90;;;;;;5031452;28;20026;-48
2022/06/20 12:34:14;;;;;;;5.10;0.88;;;18.90;99.90;;;;;;5031865;28;20056;-51
2022/06/20 12:36:57;;;;;;;0.90;0.77;;;19.00;99.90;;;;;;5032615;28;20037;-49
2022/06/20 12:39:25;;;;;;;1.90;0.63;;;19.10;99.90;;;;;;5013467;28;20474;-44
2022/06/20 12:42:20;;;;;;;0.47;0.47;;;19.10;99.90;;;;;;5012919;28;20100;-46
2022/06/20 12:44:51;;;;;;;0.60;0.52;;;19.10;99.90;;;;;;5026751;28;20025;-47
2022/06/20 12:47:39;;;;;;;1.52;0.77;;;18.90;99.90;;;;;;5023795;28;20079;-51
2022/06/20 12:50:24;;;;;;;2.35;0.60;;;18.80;99.90;;;;;;5033089;28;20032;-49
2022/06/20 12:53:28;;;;;;;;;;;18.80;99.90;;;;;;5032126;28;20045;-47
2022/06/20 12:56:07;;;;;;;2.45;0.70;;;18.90;99.90;;;;;;5008511;28;19958;-50
2022/06/20 12:58:48;;;;;;;0.73;0.50;;;18.90;99.90;;;;;;5009983;28;20099;-46
2022/06/20 13:01:33;;;;;;;6.07;0.70;;;18.90;99.90;;;;;;5024813;28;20116;-49
2022/06/20 13:04:26;;;;;;;2.20;0.60;;;18.90;99.90;;;;;;5032622;28;20038;-46
2022/06/20 13:07:07;;;;;;;1.77;0.57;;;18.90;99.90;;;;;;5032190;28;20413;-47
2022/06/20 13:09:52;;;;;;;0.52;0.50;;;18.70;99.60;;;;;;5032598;28;20116;-45
2022/06/20 13:12:48;;;;;;;4.65;0.52;;;18.60;98.10;;;;;;5032283;28;20044;-47
2022/06/20 13:15:31;;;;;;;1.30;0.70;;;18.40;97.60;;;;;;5033433;28;20443;-45
2022/06/20 13:18:20;;;;;;;1.05;0.52;;;18.40;96.50;;;;;;5033039;28;20404;-46
2022/06/20 13:21:18;;;;;;;3.72;0.63;;;18.40;96.70;;;;;;5032658;28;20551;-49
2022/06/20 13:24:00;;;;;;;1.95;0.35;;;18.40;96.80;;;;;;5032811;28;20594;-51
2022/06/20 13:26:43;;;;;;;0.43;0.43;;;18.40;95.80;;;;;;5032456;28;20018;-46
2022/06/20 13:29:40;;;;;;;1.42;0.40;;;18.30;95.80;;;;;;5031723;28;20037;-47
2022/06/20 13:32:17;;;;;;;0.63;0.40;;;18.40;95.40;;;;;;5031051;28;20021;-45
2022/06/20 13:34:55;;;;;;;1.10;0.57;;;18.40;95.10;;;;;;5030316;28;20029;-46
2022/06/20 13:37:35;;;;;;;0.30;0.30;;;18.60;95.00;;;;;;5031376;28;20079;-47
2022/06/20 13:40:15;;;;;;;0.43;0.40;;;18.70;95.40;;;;;;5031778;28;20033;-46
2022/06/20 13:42:44;;;;;;;1.50;0.88;;;18.90;95.50;;;;;;5030739;28;20493;-50
2022/06/20 13:45:22;;;;;;;0.30;0.30;;;19.10;95.60;;;;;;5030102;28;20029;-47
2022/06/20 13:48:01;;;;;;;0.32;0.30;;;19.20;94.90;;;;;;5031507;28;20018;-46
2022/06/20 13:50:38;;;;;;;0.38;0.38;;;19.30;94.80;;;;;;5031800;28;20026;-47